createdAt,value
2023-11-09T00:02:26.513Z,7.06
2023-11-09T00:04:53.574Z,7.00
2023-11-09T00:07:25.303Z,6.94
2023-11-09T00:10:14.237Z,6.96
2023-11-09T00:12:54.851Z,6.90
2023-11-09T00:15:22.145Z,6.84
2023-11-09T00:17:50.305Z,6.82
2023-11-09T00:20:21.953Z,6.83
2023-11-09T00:22:49.912Z,6.81
2023-11-09T00:25:18.870Z,6.81
2023-11-09T00:27:45.963Z,6.87
2023-11-09T00:30:13.291Z,6.94
2023-11-09T00:32:40.451Z,6.89
2023-11-09T00:35:10.434Z,6.93
2023-11-09T00:37:38.868Z,6.89
2023-11-09T00:40:11.985Z,6.87
2023-11-09T00:42:39.920Z,6.85
2023-11-09T00:45:08.269Z,6.79
2023-11-09T00:47:55.232Z,6.72
2023-11-09T00:50:35.791Z,6.69
2023-11-09T00:53:23.197Z,6.75
2023-11-09T00:56:24.135Z,6.78
2023-11-09T00:59:05.021Z,6.93
2023-11-09T01:01:31.930Z,6.91
2023-11-09T01:04:19.395Z,6.93
2023-11-09T01:07:20.202Z,6.79
2023-11-09T01:10:01.332Z,6.90
2023-11-09T01:12:28.679Z,7.18
2023-11-09T01:14:56.147Z,7.14
2023-11-09T01:17:23.117Z,7.13
2023-11-09T01:19:50.163Z,7.20
2023-11-09T01:22:17.816Z,7.14
2023-11-09T01:24:44.842Z,7.24
2023-11-09T01:27:11.916Z,7.04
2023-11-09T01:29:39.271Z,7.00
2023-11-09T01:32:06.453Z,6.82
2023-11-09T01:34:33.637Z,6.82
2023-11-09T01:37:01.654Z,6.95
2023-11-09T01:39:28.606Z,6.71
2023-11-09T01:41:55.669Z,6.74
2023-11-09T01:44:22.613Z,6.95
2023-11-09T01:46:54.608Z,6.92
2023-11-09T01:49:22.041Z,6.84
2023-11-09T01:51:50.324Z,6.79
2023-11-09T01:54:20.008Z,6.76
2023-11-09T01:56:47.660Z,6.78
2023-11-09T01:59:35.210Z,6.75
2023-11-09T02:02:36.198Z,6.78
2023-11-09T02:05:37.283Z,6.75
2023-11-09T02:08:19.516Z,6.69
2023-11-09T02:10:47.083Z,6.66
2023-11-09T02:13:14.212Z,6.61
2023-11-09T02:15:41.262Z,6.70
2023-11-09T02:18:08.309Z,6.77
2023-11-09T02:20:37.546Z,6.66
2023-11-09T02:23:06.935Z,6.58
2023-11-09T02:25:34.051Z,6.60
2023-11-09T02:28:01.987Z,6.65
2023-11-09T02:30:29.400Z,6.50
2023-11-09T02:32:56.444Z,6.47
2023-11-09T02:35:43.236Z,6.39
2023-11-09T02:38:44.205Z,6.33
2023-11-09T02:41:45.233Z,6.40
2023-11-09T02:44:47.256Z,6.42
2023-11-09T02:47:27.882Z,6.49
2023-11-09T02:49:54.869Z,6.63
2023-11-09T02:52:21.954Z,6.66
2023-11-09T02:54:48.964Z,6.63
2023-11-09T02:57:37.225Z,6.57
2023-11-09T03:00:18.016Z,6.48
2023-11-09T03:02:45.516Z,6.56
2023-11-09T03:05:12.728Z,6.51
2023-11-09T03:07:39.768Z,6.47
2023-11-09T03:10:27.268Z,6.50
2023-11-09T03:13:29.292Z,6.53
2023-11-09T03:16:30.217Z,6.54
2023-11-09T03:19:10.863Z,6.56
2023-11-09T03:21:37.823Z,6.50
2023-11-09T03:24:05.357Z,6.86
2023-11-09T03:26:36.082Z,6.83
2023-11-09T03:29:03.205Z,6.96
2023-11-09T03:31:30.370Z,6.98
2023-11-09T03:33:57.847Z,7.11
2023-11-09T03:36:24.862Z,7.09
2023-11-09T03:38:53.144Z,7.11
2023-11-09T03:41:20.743Z,6.84
2023-11-09T03:43:48.264Z,6.63
2023-11-09T03:46:15.507Z,6.60
2023-11-09T03:48:42.565Z,6.56
2023-11-09T03:51:29.264Z,6.72
2023-11-09T03:54:30.231Z,6.73
2023-11-09T03:57:10.860Z,6.62
2023-11-09T03:59:37.888Z,6.70
2023-11-09T04:02:05.294Z,6.70
2023-11-09T04:04:32.404Z,6.57
2023-11-09T04:06:59.655Z,6.51
2023-11-09T04:09:26.774Z,6.52
2023-11-09T04:11:53.830Z,6.73
2023-11-09T04:14:20.772Z,6.74
2023-11-09T04:16:50.266Z,6.69
2023-11-09T04:19:17.844Z,6.99
2023-11-09T04:21:45.667Z,6.97
2023-11-09T04:24:12.664Z,6.87
2023-11-09T04:26:39.837Z,6.87
2023-11-09T04:29:10.374Z,6.78
2023-11-09T04:31:38.454Z,6.77
2023-11-09T04:34:10.163Z,6.81
2023-11-09T04:36:43.824Z,6.94
2023-11-09T04:39:12.500Z,6.83
2023-11-09T04:41:40.500Z,6.91
2023-11-09T04:44:10.239Z,6.74
2023-11-09T04:46:41.992Z,6.68
2023-11-09T04:49:09.413Z,6.66
2023-11-09T04:51:37.825Z,6.72
2023-11-09T04:54:07.720Z,6.64
2023-11-09T04:56:55.341Z,6.59
2023-11-09T05:00:09.627Z,6.45
2023-11-09T05:02:58.406Z,6.45
2023-11-09T05:05:44.072Z,6.28
2023-11-09T05:08:11.901Z,6.37
2023-11-09T05:10:39.315Z,6.60
2023-11-09T05:13:06.281Z,6.56
2023-11-09T05:15:33.363Z,6.59
2023-11-09T05:18:00.678Z,6.55
2023-11-09T05:20:27.663Z,6.49
2023-11-09T05:22:57.344Z,6.70
2023-11-09T05:25:24.562Z,6.59
2023-11-09T05:27:51.581Z,6.45
2023-11-09T05:30:18.512Z,6.36
2023-11-09T05:32:45.858Z,6.53
2023-11-09T05:35:12.956Z,6.38
2023-11-09T05:37:40.042Z,6.19
2023-11-09T05:40:10.461Z,6.07
2023-11-09T05:42:42.497Z,6.03
2023-11-09T05:45:10.586Z,6.11
2023-11-09T05:47:37.785Z,6.02
2023-11-09T05:50:25.370Z,6.00
2023-11-09T05:53:26.311Z,6.00
2023-11-09T05:56:08.497Z,5.99
2023-11-09T05:58:35.494Z,5.98
2023-11-09T06:01:03.254Z,5.97
2023-11-09T06:03:30.221Z,5.93
2023-11-09T06:05:58.722Z,5.88
2023-11-09T06:08:25.723Z,5.87
2023-11-09T06:10:54.504Z,5.94
2023-11-09T06:13:24.249Z,5.95
2023-11-09T06:16:05.386Z,5.98
2023-11-09T06:19:06.365Z,5.97
2023-11-09T06:22:07.422Z,6.04
2023-11-09T06:24:47.866Z,6.08
2023-11-09T06:27:18.228Z,6.21
2023-11-09T06:29:45.237Z,6.11
2023-11-09T06:32:12.256Z,6.13
2023-11-09T06:34:41.221Z,6.24
2023-11-09T06:37:28.419Z,6.35
2023-11-09T06:40:12.944Z,6.37
2023-11-09T06:42:40.613Z,6.31
2023-11-09T06:45:27.350Z,6.38
2023-11-09T06:48:28.409Z,6.34
2023-11-09T06:51:29.375Z,6.38
2023-11-09T06:54:30.345Z,6.49
2023-11-09T06:57:12.535Z,6.50
2023-11-09T06:59:40.377Z,6.58
2023-11-09T07:02:10.263Z,6.59
2023-11-09T07:04:37.368Z,6.59
2023-11-09T07:07:04.877Z,6.69
2023-11-09T07:09:32.201Z,6.70
2023-11-09T07:11:59.172Z,6.82
2023-11-09T07:14:26.249Z,6.94
2023-11-09T07:16:55.993Z,6.96
2023-11-09T07:19:24.254Z,6.98
2023-11-09T07:21:51.706Z,7.05
2023-11-09T07:24:19.177Z,7.18
2023-11-09T07:26:46.747Z,7.56
2023-11-09T07:29:15.081Z,7.84
2023-11-09T07:31:42.287Z,7.69
2023-11-09T07:34:09.451Z,7.86
2023-11-09T07:36:56.422Z,7.73
2023-11-09T07:39:57.480Z,7.93
2023-11-09T07:42:58.815Z,7.78
2023-11-09T07:45:39.404Z,7.78
2023-11-09T07:48:06.603Z,8.11
2023-11-09T07:50:34.403Z,8.34
2023-11-09T07:53:04.153Z,8.04
2023-11-09T07:55:31.226Z,8.38
2023-11-09T07:57:59.436Z,8.70
2023-11-09T08:00:26.317Z,8.54
2023-11-09T08:02:53.302Z,8.59
2023-11-09T08:05:20.394Z,8.95
2023-11-09T08:07:47.502Z,9.12
2023-11-09T08:10:14.577Z,9.60
2023-11-09T08:12:43.014Z,9.84
2023-11-09T08:15:30.431Z,9.57
2023-11-09T08:18:31.410Z,9.91
2023-11-09T08:21:33.437Z,10.15
2023-11-09T08:24:13.947Z,10.00
2023-11-09T08:26:42.508Z,9.53
2023-11-09T08:29:10.200Z,9.86
2023-11-09T08:31:39.767Z,9.66
2023-11-09T08:34:09.577Z,9.72
2023-11-09T08:36:56.430Z,9.63
2023-11-09T08:39:38.686Z,10.30
2023-11-09T08:42:06.091Z,10.40
2023-11-09T08:44:36.268Z,10.33
2023-11-09T08:47:04.176Z,10.32
2023-11-09T08:49:51.436Z,10.65
2023-11-09T08:52:56.000Z,10.75
2023-11-09T08:55:57.470Z,10.43
2023-11-09T08:58:41.242Z,10.67
2023-11-09T09:01:19.132Z,10.34
2023-11-09T09:03:48.541Z,10.69
2023-11-09T09:06:17.405Z,10.61
2023-11-09T09:08:47.938Z,10.44
2023-11-09T09:11:16.367Z,10.42
2023-11-09T09:13:43.817Z,10.45
2023-11-09T09:16:11.489Z,10.48
2023-11-09T09:18:38.721Z,10.50
2023-11-09T09:21:10.109Z,10.65
2023-11-09T09:23:39.206Z,10.61
2023-11-09T09:26:15.319Z,10.66
2023-11-09T09:28:50.185Z,10.81
2023-11-09T09:31:38.481Z,10.93
2023-11-09T09:34:24.635Z,10.86
2023-11-09T09:36:51.763Z,10.92
2023-11-09T09:39:19.300Z,11.10
2023-11-09T09:41:52.999Z,11.02
2023-11-09T09:44:20.983Z,11.17
2023-11-09T09:46:49.626Z,10.95
2023-11-09T09:49:19.530Z,11.07
2023-11-09T09:51:50.481Z,11.03
2023-11-09T09:54:19.457Z,11.23
2023-11-09T09:56:48.525Z,11.32
2023-11-09T09:59:16.045Z,11.38
2023-11-09T10:01:49.288Z,11.39
2023-11-09T10:04:16.992Z,11.20
2023-11-09T10:06:46.111Z,11.34
2023-11-09T10:09:13.436Z,11.38
2023-11-09T10:11:40.404Z,11.55
2023-11-09T10:14:07.889Z,11.06
2023-11-09T10:16:35.555Z,11.10
2023-11-09T10:19:03.769Z,10.80
2023-11-09T10:21:35.243Z,10.82
2023-11-09T10:24:10.750Z,10.65
2023-11-09T10:27:14.548Z,10.63
2023-11-09T10:29:55.178Z,10.53
2023-11-09T10:32:22.419Z,10.49
2023-11-09T10:34:52.433Z,10.71
2023-11-09T10:37:19.539Z,10.64
2023-11-09T10:39:48.170Z,10.49
2023-11-09T10:42:18.672Z,10.45
2023-11-09T10:44:46.698Z,10.41
2023-11-09T10:47:15.054Z,10.52
2023-11-09T10:49:45.744Z,10.57
2023-11-09T10:52:16.060Z,10.55
2023-11-09T10:54:45.951Z,10.67
2023-11-09T10:57:15.046Z,10.60
2023-11-09T10:59:43.616Z,10.88
2023-11-09T11:02:18.019Z,11.02
2023-11-09T11:04:51.085Z,11.02
2023-11-09T11:07:40.269Z,11.35
2023-11-09T11:10:11.679Z,11.56
2023-11-09T11:12:41.720Z,11.63
2023-11-09T11:15:11.500Z,11.85
2023-11-09T11:18:24.583Z,11.69
2023-11-09T11:21:43.533Z,11.39
2023-11-09T11:25:10.599Z,11.78
2023-11-09T11:28:12.907Z,11.18
2023-11-09T11:30:41.470Z,11.30
2023-11-09T11:33:17.378Z,11.28
2023-11-09T11:35:50.018Z,11.50
2023-11-09T11:38:17.995Z,11.25
2023-11-09T11:40:47.423Z,11.55
2023-11-09T11:43:17.049Z,11.71
2023-11-09T11:45:48.066Z,11.92
2023-11-09T11:48:26.800Z,12.11
2023-11-09T11:50:57.019Z,12.09
2023-11-09T11:53:29.733Z,11.96
2023-11-09T11:56:03.910Z,12.13
2023-11-09T11:59:08.728Z,11.87
2023-11-09T12:02:09.546Z,11.73
2023-11-09T12:04:37.514Z,11.84
2023-11-09T12:07:11.648Z,11.75
2023-11-09T12:09:39.147Z,11.67
2023-11-09T12:12:11.569Z,11.28
2023-11-09T12:14:59.564Z,11.43
2023-11-09T12:18:00.617Z,11.36
2023-11-09T12:21:02.571Z,11.27
2023-11-09T12:23:56.958Z,11.07
2023-11-09T12:26:26.838Z,10.94
2023-11-09T12:28:56.427Z,11.08
2023-11-09T12:31:27.509Z,11.02
2023-11-09T12:34:08.995Z,11.11
2023-11-09T12:36:44.783Z,11.13
2023-11-09T12:39:24.924Z,11.13
2023-11-09T12:41:52.947Z,11.22
2023-11-09T12:44:43.866Z,11.25
2023-11-09T12:47:45.568Z,11.07
2023-11-09T12:50:49.581Z,10.93
2023-11-09T12:53:34.620Z,10.78
2023-11-09T12:56:03.286Z,10.82
2023-11-09T12:58:31.208Z,10.59
2023-11-09T13:00:58.697Z,10.51
2023-11-09T13:03:25.934Z,10.43
2023-11-09T13:05:53.216Z,10.47
2023-11-09T13:08:20.177Z,10.43
2023-11-09T13:11:09.566Z,10.49
2023-11-09T13:14:16.577Z,10.30
2023-11-09T13:17:10.581Z,10.34
2023-11-09T13:19:52.521Z,10.36
2023-11-09T13:22:19.896Z,10.49
2023-11-09T13:24:49.437Z,10.54
2023-11-09T13:27:25.627Z,10.41
2023-11-09T13:29:53.393Z,10.48
2023-11-09T13:32:28.810Z,10.49
2023-11-09T13:35:21.690Z,10.45
2023-11-09T13:37:57.977Z,10.67
2023-11-09T13:40:26.031Z,10.54
2023-11-09T13:43:09.843Z,10.51
2023-11-09T13:45:56.581Z,10.61
2023-11-09T13:48:58.681Z,10.53
2023-11-09T13:52:08.621Z,10.53
2023-11-09T13:55:20.673Z,10.53
2023-11-09T13:58:31.804Z,10.67
2023-11-09T14:01:39.697Z,10.52
2023-11-09T14:04:40.655Z,10.36
2023-11-09T14:07:42.116Z,10.20
2023-11-09T14:10:30.120Z,10.19
2023-11-09T14:13:10.776Z,10.39
2023-11-09T14:15:51.146Z,10.40
2023-11-09T14:18:27.549Z,10.09
2023-11-09T14:21:08.371Z,10.03
2023-11-09T14:23:38.599Z,9.93
2023-11-09T14:26:06.100Z,9.90
2023-11-09T14:28:34.492Z,9.81
2023-11-09T14:31:07.343Z,9.80
2023-11-09T14:33:34.626Z,9.91
2023-11-09T14:36:03.206Z,9.96
2023-11-09T14:38:30.886Z,9.99
2023-11-09T14:41:02.097Z,10.07
2023-11-09T14:43:49.653Z,9.88
2023-11-09T14:46:50.705Z,9.81
2023-11-09T14:49:59.726Z,9.58
2023-11-09T14:53:07.198Z,9.50
2023-11-09T14:56:06.679Z,9.53
2023-11-09T14:59:08.767Z,9.52
2023-11-09T15:02:10.683Z,9.59
2023-11-09T15:05:12.978Z,9.54
2023-11-09T15:07:48.362Z,9.45
2023-11-09T15:10:15.896Z,9.41
2023-11-09T15:12:51.469Z,9.39
2023-11-09T15:15:18.860Z,9.40
2023-11-09T15:17:47.017Z,9.43
2023-11-09T15:20:23.493Z,9.40
2023-11-09T15:22:57.001Z,9.37
2023-11-09T15:25:32.344Z,9.29
2023-11-09T15:28:03.409Z,9.31
2023-11-09T15:30:31.379Z,9.27
2023-11-09T15:32:59.636Z,9.30
2023-11-09T15:35:29.598Z,9.34
2023-11-09T15:38:00.556Z,9.25
2023-11-09T15:41:09.796Z,9.16
2023-11-09T15:43:15.455Z,9.12
2023-11-09T15:45:43.126Z,9.07
2023-11-09T15:48:10.753Z,9.07
2023-11-09T15:50:38.516Z,9.01
2023-11-09T15:53:06.954Z,9.00
2023-11-09T15:55:53.773Z,8.99
2023-11-09T15:58:55.721Z,8.98
2023-11-09T16:01:57.814Z,9.00
2023-11-09T16:04:52.721Z,9.11
2023-11-09T16:07:57.732Z,9.24
2023-11-09T16:10:40.132Z,9.23
2023-11-09T16:13:07.150Z,9.19
2023-11-09T16:15:34.193Z,9.20
2023-11-09T16:18:01.757Z,9.29
2023-11-09T16:20:35.856Z,9.30
2023-11-09T16:23:08.978Z,9.35
2023-11-09T16:25:47.839Z,9.37
2023-11-09T16:28:22.008Z,9.31
2023-11-09T16:30:50.090Z,9.22
2023-11-09T16:33:18.645Z,9.32
2023-11-09T16:35:46.813Z,9.32
2023-11-09T16:38:14.269Z,9.36
2023-11-09T16:40:41.681Z,9.30
2023-11-09T16:43:11.492Z,9.35
2023-11-09T16:45:38.862Z,9.31
2023-11-09T16:48:06.626Z,9.38
2023-11-09T16:50:53.734Z,9.30
2023-11-09T16:53:34.540Z,9.35
2023-11-09T16:56:02.099Z,9.22
2023-11-09T16:58:49.744Z,9.33
2023-11-09T17:01:50.777Z,9.36
2023-11-09T17:04:44.798Z,9.40
2023-11-09T17:07:43.876Z,9.33
2023-11-09T17:10:45.767Z,9.27
2023-11-09T17:13:26.394Z,9.38
2023-11-09T17:15:53.465Z,9.39
2023-11-09T17:18:20.851Z,9.33
2023-11-09T17:20:48.015Z,9.31
2023-11-09T17:23:15.704Z,9.19
2023-11-09T17:25:42.766Z,9.11
2023-11-09T17:28:09.779Z,9.42
2023-11-09T17:30:56.809Z,9.13
2023-11-09T17:33:57.750Z,9.09
2023-11-09T17:36:38.306Z,9.03
2023-11-09T17:39:05.371Z,9.07
2023-11-09T17:41:32.402Z,9.19
2023-11-09T17:44:19.751Z,9.15
2023-11-09T17:47:00.377Z,9.06
2023-11-09T17:49:27.410Z,9.05
2023-11-09T17:51:54.423Z,9.16
2023-11-09T17:54:21.642Z,9.17
2023-11-09T17:56:48.662Z,9.21
2023-11-09T17:59:15.683Z,9.23
2023-11-09T18:01:42.857Z,9.25
2023-11-09T18:04:11.254Z,9.19
2023-11-09T18:06:51.744Z,9.16
2023-11-09T18:09:52.757Z,9.20
2023-11-09T18:12:55.756Z,9.23
2023-11-09T18:15:36.552Z,9.24
2023-11-09T18:18:05.146Z,9.23
2023-11-09T18:20:35.441Z,9.28
2023-11-09T18:23:03.396Z,9.29
2023-11-09T18:25:34.508Z,9.30
2023-11-09T18:28:01.608Z,9.23
2023-11-09T18:30:28.576Z,9.26
2023-11-09T18:32:55.777Z,9.23
2023-11-09T18:35:24.055Z,9.28
2023-11-09T18:37:51.067Z,9.29
2023-11-09T18:40:18.506Z,9.36
2023-11-09T18:42:45.834Z,9.26
2023-11-09T18:45:15.395Z,9.37
2023-11-09T18:47:42.502Z,9.35
2023-11-09T18:52:42.519Z,9.32
2023-11-09T18:55:30.991Z,9.30
2023-11-09T18:58:32.778Z,9.26
2023-11-09T19:01:14.254Z,9.31
2023-11-09T19:06:12.261Z,9.28
2023-11-09T19:08:39.493Z,9.37
2023-11-09T19:11:11.478Z,9.26
2023-11-09T19:13:39.169Z,9.25
2023-11-09T19:16:07.563Z,9.22
2023-11-09T19:18:35.362Z,9.14
2023-11-09T19:23:32.428Z,9.25
2023-11-09T19:25:59.507Z,9.27
2023-11-09T19:28:30.708Z,9.31
2023-11-09T19:31:18.824Z,9.29
2023-11-09T19:34:19.792Z,9.23
2023-11-09T19:37:20.793Z,9.25
2023-11-09T19:40:22.847Z,9.27
2023-11-09T19:43:23.864Z,9.25
2023-11-09T19:46:04.746Z,9.27
2023-11-09T19:48:31.871Z,9.25
2023-11-09T19:50:59.210Z,9.20
2023-11-09T19:53:26.213Z,9.20
2023-11-09T19:55:53.296Z,9.15
2023-11-09T19:58:47.844Z,9.08
2023-11-09T20:01:29.350Z,9.18
2023-11-09T20:03:56.529Z,9.25
2023-11-09T20:06:30.885Z,9.23
2023-11-09T20:09:17.842Z,9.16
2023-11-09T20:12:18.891Z,9.07
2023-11-09T20:14:54.669Z,9.01
2023-11-09T20:17:26.102Z,8.95
2023-11-09T20:19:53.251Z,8.91
2023-11-09T20:22:20.312Z,8.94
2023-11-09T20:24:48.283Z,9.00
2023-11-09T20:27:15.357Z,8.89
2023-11-09T20:29:43.487Z,8.89
2023-11-09T20:32:12.764Z,8.96
2023-11-09T20:34:39.853Z,9.05
2023-11-09T20:37:08.139Z,9.04
2023-11-09T20:39:40.048Z,8.89
2023-11-09T20:42:07.482Z,8.90
2023-11-09T20:44:34.764Z,8.88
2023-11-09T20:47:23.863Z,8.87
2023-11-09T20:50:15.465Z,8.96
2023-11-09T20:52:45.927Z,9.07
2023-11-09T20:55:19.559Z,9.02
2023-11-09T20:58:08.892Z,8.97
2023-11-09T21:01:00.513Z,9.04
2023-11-09T21:03:34.062Z,9.05
2023-11-09T21:06:01.335Z,8.96
2023-11-09T21:08:48.850Z,8.94
2023-11-09T21:11:49.853Z,8.97
2023-11-09T21:14:30.830Z,8.97
2023-11-09T21:16:58.136Z,8.95
2023-11-09T21:19:26.755Z,8.97
2023-11-09T21:21:55.126Z,9.09
2023-11-09T21:24:24.857Z,9.07
2023-11-09T21:26:54.445Z,8.97
2023-11-09T21:29:22.466Z,8.99
2023-11-09T21:32:10.055Z,9.06
2023-11-09T21:35:10.931Z,8.99
2023-11-09T21:37:51.619Z,9.14
2023-11-09T21:40:20.933Z,9.03
2023-11-09T21:42:48.639Z,9.02
2023-11-09T21:45:36.957Z,9.07
2023-11-09T21:48:31.007Z,9.12
2023-11-09T21:51:11.756Z,9.07
2023-11-09T21:53:41.529Z,9.05
2023-11-09T21:56:28.914Z,9.06
2023-11-09T21:59:29.974Z,9.11
2023-11-09T22:02:10.451Z,9.14
2023-11-09T22:04:39.080Z,9.07
2023-11-09T22:07:06.578Z,9.04
2023-11-09T22:09:34.512Z,8.96
2023-11-09T22:12:02.611Z,8.99
2023-11-09T22:14:30.542Z,8.97
2023-11-09T22:17:00.684Z,8.95
2023-11-09T22:19:27.597Z,8.97
2023-11-09T22:21:54.618Z,8.93
2023-11-09T22:24:21.568Z,8.90
2023-11-09T22:26:49.264Z,8.92
2023-11-09T22:29:16.522Z,8.91
2023-11-09T22:31:43.757Z,8.90
2023-11-09T22:34:10.829Z,8.91
2023-11-09T22:36:38.978Z,8.89
2023-11-09T22:39:07.071Z,8.88
2023-11-09T22:41:34.129Z,8.86
2023-11-09T22:44:01.323Z,8.91
2023-11-09T22:46:28.450Z,8.90
2023-11-09T22:48:55.841Z,8.98
2023-11-09T22:51:23.575Z,8.95
2023-11-09T22:53:51.612Z,8.89
2023-11-09T22:56:18.671Z,8.91
2023-11-09T22:58:46.791Z,8.92
2023-11-09T23:01:13.840Z,9.02
2023-11-09T23:03:42.752Z,9.10
2023-11-09T23:06:12.895Z,9.21
2023-11-09T23:08:40.084Z,9.16
2023-11-09T23:11:07.093Z,9.24
2023-11-09T23:13:34.183Z,9.19
2023-11-09T23:16:01.136Z,9.07
2023-11-09T23:18:32.304Z,9.05
2023-11-09T23:20:59.316Z,9.07
2023-11-09T23:23:28.872Z,9.14
2023-11-09T23:25:55.824Z,9.16
2023-11-09T23:28:24.268Z,9.12
2023-11-09T23:30:51.262Z,9.08
2023-11-09T23:33:18.315Z,9.10
2023-11-09T23:35:45.342Z,9.19
2023-11-09T23:38:12.258Z,9.17
2023-11-09T23:40:39.192Z,9.15
2023-11-09T23:43:06.336Z,9.17
2023-11-09T23:45:53.954Z,9.11
2023-11-09T23:48:54.983Z,9.10
2023-11-09T23:51:35.497Z,9.13
2023-11-09T23:54:02.564Z,9.04
2023-11-09T23:56:42.954Z,9.08
2023-11-09T23:59:46.936Z,9.01
